Time,TemperatureF,DewpointF,PressureIn,WindDirection,WindDirectionDegrees,WindSpeedMPH,WindSpeedGustMPH,Humidity,HourlyPrecipIn,Conditions,Clouds,dailyrainin,SoftwareType,DateUTC
2013-01-12 00:02:00,37.0,36.0,29.70,NNE,28,2.0,-999.0,95,-99.99,,,-99.99,,2013-01-12 08:02:00,
2013-01-12 00:11:00,37.0,36.0,29.70,NNE,28,2.0,-999.0,95,-99.99,,,-99.99,,2013-01-12 08:11:00,
2013-01-12 00:22:00,37.0,36.0,29.70,NNE,22,2.0,-999.0,95,-99.99,,,-99.99,,2013-01-12 08:22:00,
2013-01-12 00:32:00,37.0,36.0,29.70,NE,50,3.0,-999.0,95,-99.99,,,-99.99,,2013-01-12 08:32:00,
2013-01-12 00:42:00,37.0,36.0,29.70,NE,50,3.0,-999.0,95,-99.99,,,-99.99,,2013-01-12 08:42:00,
2013-01-12 00:52:00,37.0,36.0,29.70,NE,34,2.0,-999.0,95,-99.99,,,-99.99,,2013-01-12 08:52:00,
2013-01-12 01:02:00,38.0,37.0,29.70,NNE,30,0.0,-999.0,95,-99.99,,,-99.99,,2013-01-12 09:02:00,
2013-01-12 01:11:00,38.0,37.0,29.70,NNE,30,0.0,-999.0,95,-99.99,,,-99.99,,2013-01-12 09:11:00,
2013-01-12 01:22:00,37.0,36.0,29.70,ENE,76,0.0,-999.0,95,-99.99,,,-99.99,,2013-01-12 09:22:00,
2013-01-12 01:32:00,37.0,36.0,29.70,ENE,78,0.0,-999.0,95,-99.99,,,-99.99,,2013-01-12 09:32:00,
2013-01-12 01:42:00,37.0,36.0,29.70,ENE,78,0.0,-999.0,95,-99.99,,,-99.99,,2013-01-12 09:42:00,
2013-01-12 01:52:00,37.0,36.0,29.71,ENE,77,0.0,-999.0,95,-99.99,,,-99.99,,2013-01-12 09:52:00,
2013-01-12 02:02:00,37.0,36.0,29.71,East,87,0.0,-999.0,95,-99.99,,,-99.99,,2013-01-12 10:02:00,
2013-01-12 02:11:00,37.0,36.0,29.71,East,87,0.0,-999.0,95,-99.99,,,-99.99,,2013-01-12 10:11:00,
2013-01-12 02:22:00,36.0,35.0,29.72,ENE,76,0.0,-999.0,95,-99.99,,,-99.99,,2013-01-12 10:22:00,
2013-01-12 02:32:00,36.0,35.0,29.72,ESE,109,0.0,-999.0,95,-99.99,,,-99.99,,2013-01-12 10:32:00,
2013-01-12 02:42:00,36.0,35.0,29.72,ESE,109,0.0,-999.0,95,-99.99,,,-99.99,,2013-01-12 10:42:00,
2013-01-12 02:52:00,36.0,35.0,29.71,ESE,113,0.0,-999.0,95,-99.99,,,-99.99,,2013-01-12 10:52:00,
2013-01-12 03:02:00,36.0,35.0,29.72,ESE,110,0.0,-999.0,95,-99.99,,,-99.99,,2013-01-12 11:02:00,
2013-01-12 03:11:00,36.0,35.0,29.72,ESE,110,0.0,-999.0,95,-99.99,,,-99.99,,2013-01-12 11:11:00,
2013-01-12 03:22:00,36.0,34.0,29.72,East,98,0.0,-999.0,94,-99.99,,,-99.99,,2013-01-12 11:22:00,
2013-01-12 03:32:00,36.0,35.0,29.72,NE,34,0.0,-999.0,95,-99.99,,,-99.99,,2013-01-12 11:32:00,
2013-01-12 03:42:00,36.0,35.0,29.72,NE,34,0.0,-999.0,95,-99.99,,,-99.99,,2013-01-12 11:42:00,
2013-01-12 03:52:00,36.0,34.0,29.72,NE,45,0.0,-999.0,94,-99.99,,,-99.99,,2013-01-12 11:52:00,
2013-01-12 04:02:00,36.0,35.0,29.72,NE,46,0.0,-999.0,95,-99.99,,,-99.99,,2013-01-12 12:02:00,
2013-01-12 04:11:00,36.0,35.0,29.72,NE,46,0.0,-999.0,95,-99.99,,,-99.99,,2013-01-12 12:11:00,
2013-01-12 04:22:00,36.0,35.0,29.72,NE,46,0.0,-999.0,95,-99.99,,,-99.99,,2013-01-12 12:22:00,
2013-01-12 04:32:00,35.0,34.0,29.73,NE,46,0.0,-999.0,95,-99.99,,,-99.99,,2013-01-12 12:32:00,
2013-01-12 04:42:00,35.0,34.0,29.73,NE,46,0.0,-999.0,95,-99.99,,,-99.99,,2013-01-12 12:42:00,
2013-01-12 04:52:00,35.0,33.0,29.73,NE,46,0.0,-999.0,94,-99.99,,,-99.99,,2013-01-12 12:52:00,
2013-01-12 05:02:00,34.0,32.0,29.73,NE,45,0.0,-999.0,94,-99.99,,,-99.99,,2013-01-12 13:02:00,
2013-01-12 05:11:00,34.0,32.0,29.73,NE,45,0.0,-999.0,94,-99.99,,,-99.99,,2013-01-12 13:11:00,
2013-01-12 05:22:00,34.0,32.0,29.73,NE,45,0.0,-999.0,94,-99.99,,,-99.99,,2013-01-12 13:22:00,
2013-01-12 05:32:00,34.0,33.0,29.73,NE,46,0.0,-999.0,95,-99.99,,,-99.99,,2013-01-12 13:32:00,
2013-01-12 05:42:00,34.0,33.0,29.73,NE,46,0.0,-999.0,95,-99.99,,,-99.99,,2013-01-12 13:42:00,
2013-01-12 05:52:00,34.0,32.0,29.73,NE,47,0.0,-999.0,94,-99.99,,,-99.99,,2013-01-12 13:52:00,
2013-01-12 06:02:00,33.0,31.0,29.73,ENE,58,0.0,-999.0,94,-99.99,,,-99.99,,2013-01-12 14:02:00,
2013-01-12 06:12:00,33.0,31.0,29.73,ENE,58,0.0,-999.0,94,-99.99,,,-99.99,,2013-01-12 14:12:00,
2013-01-12 06:22:00,33.0,31.0,29.74,ENE,57,0.0,-999.0,94,-99.99,,,-99.99,,2013-01-12 14:22:00,
2013-01-12 06:32:00,33.0,32.0,29.74,ENE,61,0.0,-999.0,95,-99.99,,,-99.99,,2013-01-12 14:32:00,
2013-01-12 06:43:00,33.0,32.0,29.74,ENE,61,0.0,-999.0,95,-99.99,,,-99.99,,2013-01-12 14:43:00,
2013-01-12 06:53:00,34.0,33.0,29.75,ENE,61,0.0,-999.0,95,-99.99,,,-99.99,,2013-01-12 14:53:00,
2013-01-12 07:03:00,33.0,32.0,29.75,ENE,61,0.0,-999.0,95,-99.99,,,-99.99,,2013-01-12 15:03:00,
2013-01-12 07:12:00,33.0,32.0,29.75,ENE,61,0.0,-999.0,95,-99.99,,,-99.99,,2013-01-12 15:12:00,
2013-01-12 07:22:00,33.0,31.0,29.76,ENE,61,0.0,-999.0,94,-99.99,,,-99.99,,2013-01-12 15:22:00,
2013-01-12 07:33:00,33.0,32.0,29.77,ENE,61,0.0,-999.0,95,-99.99,,,-99.99,,2013-01-12 15:33:00,
2013-01-12 07:42:00,33.0,32.0,29.77,ENE,61,0.0,-999.0,95,-99.99,,,-99.99,,2013-01-12 15:42:00,
2013-01-12 07:52:00,33.0,31.0,29.78,ENE,61,0.0,-999.0,94,-99.99,,,-99.99,,2013-01-12 15:52:00,
2013-01-12 08:02:00,32.0,30.0,29.78,ENE,61,0.0,-999.0,94,-99.99,,,-99.99,,2013-01-12 16:02:00,
2013-01-12 08:12:00,32.0,30.0,29.78,ENE,61,0.0,-999.0,94,-99.99,,,-99.99,,2013-01-12 16:12:00,
2013-01-12 08:22:00,33.0,32.0,29.79,ENE,61,0.0,-999.0,95,-99.99,,,-99.99,,2013-01-12 16:22:00,
2013-01-12 08:32:00,34.0,33.0,29.79,ENE,61,0.0,-999.0,96,-99.99,,,-99.99,,2013-01-12 16:32:00,
2013-01-12 08:42:00,34.0,33.0,29.79,ENE,61,0.0,-999.0,96,-99.99,,,-99.99,,2013-01-12 16:42:00,
2013-01-12 08:52:00,37.0,36.0,29.80,ENE,61,0.0,-999.0,97,-99.99,,,-99.99,,2013-01-12 16:52:00,
2013-01-12 09:02:00,38.0,37.0,29.80,ENE,61,0.0,-999.0,95,-99.99,,,-99.99,,2013-01-12 17:02:00,
2013-01-12 09:12:00,38.0,37.0,29.80,ENE,61,0.0,-999.0,95,-99.99,,,-99.99,,2013-01-12 17:12:00,
2013-01-12 09:22:00,37.0,35.0,29.80,ENE,61,0.0,-999.0,94,-99.99,,,-99.99,,2013-01-12 17:22:00,
2013-01-12 09:32:00,38.0,36.0,29.79,ENE,61,0.0,-999.0,94,-99.99,,,-99.99,,2013-01-12 17:32:00,
2013-01-12 09:42:00,38.0,36.0,29.79,ENE,61,0.0,-999.0,94,-99.99,,,-99.99,,2013-01-12 17:42:00,
2013-01-12 09:53:00,38.0,36.0,29.80,ENE,61,0.0,-999.0,92,-99.99,,,-99.99,,2013-01-12 17:53:00,
2013-01-12 10:02:00,39.0,37.0,29.79,NNE,21,0.0,-999.0,93,-99.99,,,-99.99,,2013-01-12 18:02:00,
2013-01-12 10:12:00,39.0,37.0,29.79,NNE,21,0.0,-999.0,93,-99.99,,,-99.99,,2013-01-12 18:12:00,
2013-01-12 10:22:00,39.0,37.0,29.79,NNE,21,0.0,-999.0,91,-99.99,,,-99.99,,2013-01-12 18:22:00,
2013-01-12 10:33:00,39.0,37.0,29.79,West,280,1.0,-999.0,91,-99.99,,,-99.99,,2013-01-12 18:33:00,
2013-01-12 10:42:00,39.0,37.0,29.79,West,280,1.0,-999.0,91,-99.99,,,-99.99,,2013-01-12 18:42:00,
2013-01-12 10:52:00,38.0,35.0,29.78,West,266,0.0,-999.0,89,-99.99,,,-99.99,,2013-01-12 18:52:00,
2013-01-12 11:02:00,37.0,34.0,29.78,West,266,0.0,-999.0,89,-99.99,,,-99.99,,2013-01-12 19:02:00,
2013-01-12 11:12:00,37.0,34.0,29.78,West,266,0.0,-999.0,89,-99.99,,,-99.99,,2013-01-12 19:12:00,
2013-01-12 11:22:00,38.0,35.0,29.78,West,265,0.0,-999.0,88,-99.99,,,-99.99,,2013-01-12 19:22:00,
2013-01-12 11:32:00,39.0,33.0,29.77,WNW,284,0.0,-999.0,79,-99.99,,,-99.99,,2013-01-12 19:32:00,
2013-01-12 11:42:00,39.0,33.0,29.77,WNW,284,0.0,-999.0,79,-99.99,,,-99.99,,2013-01-12 19:42:00,
2013-01-12 11:52:00,41.0,31.0,29.77,NW,323,0.0,-999.0,68,-99.99,,,-99.99,,2013-01-12 19:52:00,
2013-01-12 12:02:00,42.0,32.0,29.76,NNE,29,1.0,-999.0,68,-99.99,,,-99.99,,2013-01-12 20:02:00,
2013-01-12 12:12:00,42.0,31.0,29.75,NE,37,1.0,-999.0,65,-99.99,,,-99.99,,2013-01-12 20:12:00,
2013-01-12 12:22:00,42.0,31.0,29.75,NE,37,1.0,-999.0,65,-99.99,,,-99.99,,2013-01-12 20:22:00,
2013-01-12 12:32:00,42.0,31.0,29.74,NE,40,1.0,-999.0,65,-99.99,,,-99.99,,2013-01-12 20:32:00,
2013-01-12 12:42:00,42.0,31.0,29.74,NE,40,1.0,-999.0,65,-99.99,,,-99.99,,2013-01-12 20:42:00,
2013-01-12 12:52:00,43.0,32.0,29.74,NNE,30,1.0,-999.0,64,-99.99,,,-99.99,,2013-01-12 20:52:00,
2013-01-12 13:02:00,43.0,30.0,29.73,SSE,159,0.0,-999.0,59,-99.99,,,-99.99,,2013-01-12 21:02:00,
2013-01-12 13:12:00,44.0,32.0,29.73,NNE,26,1.0,-999.0,63,-99.99,,,-99.99,,2013-01-12 21:12:00,
2013-01-12 13:22:00,44.0,32.0,29.73,NNE,26,1.0,-999.0,63,-99.99,,,-99.99,,2013-01-12 21:22:00,
2013-01-12 13:32:00,43.0,30.0,29.73,NE,46,2.0,-999.0,60,-99.99,,,-99.99,,2013-01-12 21:32:00,
2013-01-12 13:42:00,43.0,30.0,29.73,NE,46,2.0,-999.0,60,-99.99,,,-99.99,,2013-01-12 21:42:00,
2013-01-12 13:52:00,42.0,27.0,29.72,East,96,1.0,-999.0,56,-99.99,,,-99.99,,2013-01-12 21:52:00,
2013-01-12 14:02:00,42.0,27.0,29.72,East,96,1.0,-999.0,56,-99.99,,,-99.99,,2013-01-12 22:02:00,
2013-01-12 14:11:00,42.0,27.0,29.72,East,96,1.0,-999.0,56,-99.99,,,-99.99,,2013-01-12 22:11:00,
2013-01-12 14:22:00,43.0,30.0,29.72,SE,137,0.0,-999.0,59,-99.99,,,-99.99,,2013-01-12 22:22:00,
2013-01-12 14:32:00,43.0,29.0,29.72,North,11,1.0,-999.0,58,-99.99,,,-99.99,,2013-01-12 22:32:00,
2013-01-12 14:43:00,43.0,29.0,29.72,North,11,1.0,-999.0,58,-99.99,,,-99.99,,2013-01-12 22:43:00,
2013-01-12 14:52:00,43.0,30.0,29.71,NNE,15,1.0,-999.0,59,-99.99,,,-99.99,,2013-01-12 22:52:00,
2013-01-12 15:02:00,43.0,30.0,29.71,North,355,1.0,-999.0,60,-99.99,,,-99.99,,2013-01-12 23:02:00,
2013-01-12 15:12:00,42.0,28.0,29.71,NNE,17,1.0,-999.0,57,-99.99,,,-99.99,,2013-01-12 23:12:00,
2013-01-12 15:22:00,42.0,28.0,29.71,NNE,17,1.0,-999.0,57,-99.99,,,-99.99,,2013-01-12 23:22:00,
2013-01-12 15:32:00,42.0,27.0,29.71,NNE,26,0.0,-999.0,56,-99.99,,,-99.99,,2013-01-12 23:32:00,
2013-01-12 15:42:00,42.0,27.0,29.71,NNE,26,0.0,-999.0,56,-99.99,,,-99.99,,2013-01-12 23:42:00,
2013-01-12 15:52:00,41.0,26.0,29.71,North,11,2.0,-999.0,55,-99.99,,,-99.99,,2013-01-12 23:52:00,
2013-01-12 16:02:00,41.0,27.0,29.70,NNE,31,0.0,-999.0,57,-99.99,,,-99.99,,2013-01-13 00:02:00,
2013-01-12 16:12:00,41.0,27.0,29.70,NNE,31,0.0,-999.0,57,-99.99,,,-99.99,,2013-01-13 00:12:00,
2013-01-12 16:22:00,41.0,27.0,29.70,North,5,0.0,-999.0,57,-99.99,,,-99.99,,2013-01-13 00:22:00,
2013-01-12 16:32:00,40.0,26.0,29.70,NNE,20,1.0,-999.0,58,-99.99,,,-99.99,,2013-01-13 00:32:00,
2013-01-12 16:42:00,40.0,26.0,29.70,NNE,20,1.0,-999.0,58,-99.99,,,-99.99,,2013-01-13 00:42:00,
2013-01-12 16:52:00,40.0,27.0,29.70,NE,38,0.0,-999.0,60,-99.99,,,-99.99,,2013-01-13 00:52:00,
2013-01-12 17:02:00,39.0,27.0,29.70,NNW,334,0.0,-999.0,63,-99.99,,,-99.99,,2013-01-13 01:02:00,
2013-01-12 17:11:00,39.0,27.0,29.70,NNW,334,0.0,-999.0,63,-99.99,,,-99.99,,2013-01-13 01:11:00,
2013-01-12 17:22:00,39.0,27.0,29.70,NNW,334,0.0,-999.0,63,-99.99,,,-99.99,,2013-01-13 01:22:00,
2013-01-12 17:32:00,37.0,28.0,29.70,West,271,2.0,-999.0,71,-99.99,,,-99.99,,2013-01-13 01:32:00,
2013-01-12 17:42:00,37.0,28.0,29.70,West,271,2.0,-999.0,71,-99.99,,,-99.99,,2013-01-13 01:42:00,
2013-01-12 17:53:00,37.0,28.0,29.70,West,271,2.0,-999.0,71,-99.99,,,-99.99,,2013-01-13 01:53:00,
2013-01-12 18:02:00,35.0,28.0,29.70,NW,323,0.0,-999.0,76,-99.99,,,-99.99,,2013-01-13 02:02:00,
2013-01-12 18:12:00,35.0,28.0,29.70,NW,323,0.0,-999.0,76,-99.99,,,-99.99,,2013-01-13 02:12:00,
2013-01-12 18:22:00,35.0,29.0,29.70,NW,304,1.0,-999.0,77,-99.99,,,-99.99,,2013-01-13 02:22:00,
2013-01-12 18:32:00,35.0,29.0,29.70,North,355,0.0,-999.0,77,-99.99,,,-99.99,,2013-01-13 02:32:00,
2013-01-12 18:42:00,35.0,29.0,29.70,North,355,0.0,-999.0,77,-99.99,,,-99.99,,2013-01-13 02:42:00,
2013-01-12 18:52:00,34.0,28.0,29.71,North,350,0.0,-999.0,78,-99.99,,,-99.99,,2013-01-13 02:52:00,
2013-01-12 19:02:00,34.0,28.0,29.71,North,355,0.0,-999.0,80,-99.99,,,-99.99,,2013-01-13 03:02:00,
2013-01-12 19:11:00,34.0,28.0,29.71,North,355,0.0,-999.0,80,-99.99,,,-99.99,,2013-01-13 03:11:00,
2013-01-12 19:22:00,34.0,29.0,29.71,North,10,0.0,-999.0,82,-99.99,,,-99.99,,2013-01-13 03:22:00,
2013-01-12 19:32:00,34.0,29.0,29.70,NE,40,0.0,-999.0,82,-99.99,,,-99.99,,2013-01-13 03:32:00,
2013-01-12 19:42:00,34.0,29.0,29.70,NE,40,0.0,-999.0,82,-99.99,,,-99.99,,2013-01-13 03:42:00,
2013-01-12 19:52:00,34.0,29.0,29.71,NE,40,0.0,-999.0,81,-99.99,,,-99.99,,2013-01-13 03:52:00,
2013-01-12 20:02:00,34.0,29.0,29.71,NE,40,0.0,-999.0,82,-99.99,,,-99.99,,2013-01-13 04:02:00,
2013-01-12 20:12:00,34.0,29.0,29.71,NE,40,0.0,-999.0,82,-99.99,,,-99.99,,2013-01-13 04:12:00,
2013-01-12 20:22:00,34.0,29.0,29.71,NE,42,0.0,-999.0,83,-99.99,,,-99.99,,2013-01-13 04:22:00,
2013-01-12 20:32:00,35.0,30.0,29.71,NE,42,0.0,-999.0,83,-99.99,,,-99.99,,2013-01-13 04:32:00,
2013-01-12 20:42:00,35.0,30.0,29.71,NE,42,0.0,-999.0,83,-99.99,,,-99.99,,2013-01-13 04:42:00,
2013-01-12 20:52:00,35.0,30.0,29.70,SSE,148,0.0,-999.0,82,-99.99,,,-99.99,,2013-01-13 04:52:00,
2013-01-12 21:03:00,35.0,30.0,29.71,SSE,148,0.0,-999.0,83,-99.99,,,-99.99,,2013-01-13 05:03:00,
2013-01-12 21:12:00,35.0,30.0,29.71,SSE,148,0.0,-999.0,83,-99.99,,,-99.99,,2013-01-13 05:12:00,
2013-01-12 21:22:00,35.0,30.0,29.71,SSE,157,0.0,-999.0,82,-99.99,,,-99.99,,2013-01-13 05:22:00,
2013-01-12 21:32:00,35.0,30.0,29.70,SSE,163,1.0,-999.0,82,-99.99,,,-99.99,,2013-01-13 05:32:00,
2013-01-12 21:42:00,35.0,30.0,29.70,SSE,163,1.0,-999.0,82,-99.99,,,-99.99,,2013-01-13 05:42:00,
2013-01-12 21:52:00,34.0,30.0,29.70,South,179,1.0,-999.0,84,-99.99,,,-99.99,,2013-01-13 05:52:00,
2013-01-12 22:02:00,35.0,30.0,29.70,South,177,0.0,-999.0,83,-99.99,,,-99.99,,2013-01-13 06:02:00,
2013-01-12 22:12:00,35.0,30.0,29.70,South,177,0.0,-999.0,83,-99.99,,,-99.99,,2013-01-13 06:12:00,
2013-01-12 22:22:00,34.0,29.0,29.70,South,173,1.0,-999.0,82,-99.99,,,-99.99,,2013-01-13 06:22:00,
2013-01-12 22:32:00,34.0,29.0,29.70,SSE,163,2.0,-999.0,83,-99.99,,,-99.99,,2013-01-13 06:32:00,
2013-01-12 22:42:00,34.0,29.0,29.70,SSE,163,2.0,-999.0,83,-99.99,,,-99.99,,2013-01-13 06:42:00,
2013-01-12 22:52:00,34.0,29.0,29.71,SSE,165,4.0,-999.0,83,-99.99,,,-99.99,,2013-01-13 06:52:00,
2013-01-12 23:02:00,34.0,29.0,29.71,SSE,163,4.0,-999.0,83,-99.99,,,-99.99,,2013-01-13 07:02:00,
2013-01-12 23:11:00,34.0,29.0,29.71,SSE,163,4.0,-999.0,83,-99.99,,,-99.99,,2013-01-13 07:11:00,
2013-01-12 23:22:00,34.0,29.0,29.72,SSE,163,4.0,-999.0,83,-99.99,,,-99.99,,2013-01-13 07:22:00,
2013-01-12 23:32:00,34.0,29.0,29.72,SSE,162,5.0,-999.0,83,-99.99,,,-99.99,,2013-01-13 07:32:00,
2013-01-12 23:42:00,34.0,29.0,29.72,SSE,162,5.0,-999.0,83,-99.99,,,-99.99,,2013-01-13 07:42:00,
2013-01-12 23:52:00,35.0,29.0,29.72,South,172,4.0,-999.0,80,-99.99,,,-99.99,,2013-01-13 07:52:00,